createdAt,value
2018-02-04T00:00:33.557Z,22.30
2018-02-04T00:03:01.925Z,20.98
2018-02-04T00:05:30.264Z,21.35
2018-02-04T00:07:58.681Z,21.52
2018-02-04T00:10:27.021Z,20.85
2018-02-04T00:12:55.332Z,20.55
2018-02-04T00:15:23.710Z,19.37
2018-02-04T00:17:52.030Z,18.25
2018-02-04T00:20:20.466Z,19.27
2018-02-04T00:22:48.781Z,14.40
2018-02-04T00:25:17.162Z,19.65
2018-02-04T00:27:45.493Z,24.27
2018-02-04T00:30:13.870Z,15.93
2018-02-04T00:32:42.241Z,17.17
2018-02-04T00:35:10.581Z,18.30
2018-02-04T00:37:38.897Z,14.50
2018-02-04T00:40:07.277Z,18.65
2018-02-04T00:42:35.653Z,17.37
2018-02-04T00:45:03.994Z,15.40
2018-02-04T00:47:32.405Z,12.82
2018-02-04T00:50:00.840Z,21.50
2018-02-04T00:52:29.138Z,13.27
2018-02-04T00:54:57.477Z,18.33
2018-02-04T00:57:25.808Z,20.33
2018-02-04T00:59:54.149Z,14.68
2018-02-04T01:02:22.505Z,16.85
2018-02-04T01:04:50.849Z,18.23
2018-02-04T01:07:19.161Z,16.15
2018-02-04T01:09:47.489Z,15.55
2018-02-04T01:12:15.874Z,19.83
2018-02-04T01:14:44.257Z,14.77
2018-02-04T01:17:12.625Z,11.43
2018-02-04T01:19:41.005Z,19.87
2018-02-04T01:22:09.377Z,14.48
2018-02-04T01:24:37.693Z,14.57
2018-02-04T01:27:06.037Z,23.42
2018-02-04T01:29:34.405Z,20.67
2018-02-04T01:32:02.749Z,10.57
2018-02-04T01:34:31.166Z,12.57
2018-02-04T01:36:59.542Z,14.02
2018-02-04T01:39:27.922Z,13.98
2018-02-04T01:41:56.297Z,13.23
2018-02-04T01:44:24.673Z,19.27
2018-02-04T01:46:53.054Z,13.43
2018-02-04T01:49:21.369Z,14.50
2018-02-04T01:51:49.801Z,11.07
2018-02-04T01:54:18.120Z,11.77
2018-02-04T01:56:46.456Z,11.12
2018-02-04T01:59:14.775Z,14.32
2018-02-04T02:01:43.213Z,11.00
2018-02-04T02:04:11.590Z,14.20
2018-02-04T02:06:39.933Z,11.07
2018-02-04T02:09:08.249Z,10.07
2018-02-04T02:11:36.621Z,14.38
2018-02-04T02:14:04.937Z,14.32
2018-02-04T02:16:33.368Z,14.30
2018-02-04T02:19:01.690Z,11.27
2018-02-04T02:21:30.025Z,13.05
2018-02-04T02:23:58.406Z,11.40
2018-02-04T02:26:26.746Z,13.62
2018-02-04T02:28:55.157Z,14.73
2018-02-04T02:31:23.498Z,16.65
2018-02-04T02:33:51.814Z,19.25
2018-02-04T02:36:20.181Z,18.92
2018-02-04T02:38:48.501Z,15.35
2018-02-04T02:41:16.943Z,18.12
2018-02-04T02:43:45.261Z,16.45
2018-02-04T02:46:13.602Z,19.70
2018-02-04T02:48:41.923Z,14.48
2018-02-04T02:51:10.409Z,22.90
2018-02-04T02:53:38.665Z,15.05
2018-02-04T02:56:07.009Z,15.88
2018-02-04T02:58:35.377Z,23.12
2018-02-04T03:01:03.753Z,17.75
2018-02-04T03:03:32.078Z,17.00
2018-02-04T03:06:00.413Z,22.95
2018-02-04T03:08:28.792Z,17.05
2018-02-04T03:10:57.157Z,17.12
2018-02-04T03:13:25.533Z,16.80
2018-02-04T03:15:53.916Z,16.00
2018-02-04T03:18:22.253Z,12.57
2018-02-04T03:20:50.669Z,15.20
2018-02-04T03:23:19.103Z,15.50
2018-02-04T03:25:47.402Z,16.35
2018-02-04T03:28:15.736Z,21.98
2018-02-04T03:30:44.078Z,14.38
2018-02-04T03:33:12.417Z,20.45
2018-02-04T03:35:41.182Z,18.37
2018-02-04T03:38:09.521Z,16.10
2018-02-04T03:40:37.843Z,16.30
2018-02-04T03:43:06.181Z,14.25
2018-02-04T03:45:34.497Z,14.57
2018-02-04T03:48:02.838Z,16.40
2018-02-04T03:50:31.158Z,18.83
2018-02-04T03:52:59.497Z,16.80
2018-02-04T03:55:27.849Z,17.20
2018-02-04T03:57:56.225Z,23.00
2018-02-04T04:00:24.551Z,20.37
2018-02-04T04:02:52.889Z,16.08
2018-02-04T04:05:21.209Z,15.55
2018-02-04T04:07:49.554Z,17.00
2018-02-04T04:10:17.869Z,18.90
2018-02-04T04:12:46.282Z,15.23
2018-02-04T04:15:14.601Z,16.20
2018-02-04T04:17:43.037Z,18.27
2018-02-04T04:20:11.357Z,23.52
2018-02-04T04:22:39.701Z,19.92
2018-02-04T04:25:08.030Z,15.80
2018-02-04T04:27:36.445Z,18.30
2018-02-04T04:30:04.761Z,17.55
2018-02-04T04:32:33.101Z,16.27
2018-02-04T04:35:01.417Z,20.55
2018-02-04T04:37:29.854Z,12.40
2018-02-04T04:39:58.227Z,18.60
2018-02-04T04:42:26.612Z,12.02
2018-02-04T04:44:54.930Z,19.35
2018-02-04T04:47:23.366Z,18.30
2018-02-04T04:49:51.682Z,15.43
2018-02-04T04:52:20.025Z,18.20
2018-02-04T04:54:48.351Z,31.10
2018-02-04T04:57:16.686Z,16.50
2018-02-04T04:59:45.004Z,17.00
2018-02-04T05:02:13.345Z,23.35
2018-02-04T05:04:41.693Z,16.35
2018-02-04T05:07:10.038Z,23.10
2018-02-04T05:09:38.356Z,17.95
2018-02-04T05:12:06.673Z,16.70
2018-02-04T05:14:35.014Z,13.32
2018-02-04T05:17:03.334Z,15.25
2018-02-04T05:19:31.674Z,16.80
2018-02-04T05:21:59.993Z,19.27
2018-02-04T05:24:28.330Z,13.52
2018-02-04T05:26:56.645Z,18.65
2018-02-04T05:29:24.984Z,17.55
2018-02-04T05:31:53.298Z,13.23
2018-02-04T05:34:21.637Z,17.40
2018-02-04T05:36:49.960Z,15.88
2018-02-04T05:39:18.294Z,15.65
2018-02-04T05:41:46.614Z,15.48
2018-02-04T05:44:14.953Z,12.32
2018-02-04T05:46:43.265Z,16.85
2018-02-04T05:49:11.606Z,16.55
2018-02-04T05:51:39.917Z,14.73
2018-02-04T05:54:08.262Z,14.18
2018-02-04T05:56:36.576Z,16.62
2018-02-04T05:59:04.917Z,17.55
2018-02-04T06:01:33.238Z,13.30
2018-02-04T06:04:01.578Z,13.27
2018-02-04T06:06:29.898Z,16.45
2018-02-04T06:08:58.237Z,14.68
2018-02-04T06:11:26.553Z,15.82
2018-02-04T06:13:55.002Z,16.33
2018-02-04T06:16:23.317Z,15.38
2018-02-04T06:18:51.657Z,13.82
2018-02-04T06:21:19.981Z,11.35
2018-02-04T06:23:48.318Z,17.00
2018-02-04T06:26:16.642Z,11.75
2018-02-04T06:28:44.982Z,14.18
2018-02-04T06:31:13.298Z,16.33
2018-02-04T06:33:41.634Z,14.85
2018-02-04T06:36:09.949Z,18.80
2018-02-04T06:38:38.296Z,25.27
2018-02-04T06:41:06.613Z,17.95
2018-02-04T06:43:34.957Z,32.50
2018-02-04T06:46:03.281Z,22.62
2018-02-04T06:48:31.629Z,22.52
2018-02-04T06:50:59.945Z,15.68
2018-02-04T06:53:28.288Z,18.37
2018-02-04T06:55:56.603Z,17.15
2018-02-04T06:58:24.992Z,15.52
2018-02-04T07:00:53.261Z,14.32
2018-02-04T07:03:21.608Z,17.87
2018-02-04T07:05:49.926Z,16.35
2018-02-04T07:08:18.278Z,13.82
2018-02-04T07:10:46.581Z,16.80
2018-02-04T07:13:14.896Z,27.75
2018-02-04T07:15:43.234Z,16.12
2018-02-04T07:18:11.550Z,18.58
2018-02-04T07:20:39.894Z,14.13
2018-02-04T07:23:08.214Z,16.87
2018-02-04T07:25:36.553Z,17.80
2018-02-04T07:28:04.869Z,19.00
2018-02-04T07:30:33.205Z,12.48
2018-02-04T07:33:01.521Z,15.27
2018-02-04T07:35:29.863Z,16.05
2018-02-04T07:37:58.173Z,17.58
2018-02-04T07:40:26.517Z,18.00
2018-02-04T07:42:54.829Z,14.68
2018-02-04T07:45:23.165Z,16.35
2018-02-04T07:47:51.481Z,19.27
2018-02-04T07:50:19.818Z,14.30
2018-02-04T07:52:48.137Z,28.27
2018-02-04T07:55:16.477Z,20.37
2018-02-04T07:57:44.798Z,20.95
2018-02-04T08:00:13.137Z,24.73
2018-02-04T08:02:41.457Z,22.55
2018-02-04T08:05:09.801Z,29.10
2018-02-04T08:07:38.122Z,23.23
2018-02-04T08:10:06.470Z,17.67
2018-02-04T08:12:34.788Z,22.08
2018-02-04T08:15:03.133Z,51.45
2018-02-04T08:17:31.453Z,19.15
2018-02-04T08:19:59.797Z,55.95
2018-02-04T08:25:13.789Z,18.98
2018-02-04T08:27:42.114Z,22.70
2018-02-04T08:30:10.622Z,18.20
2018-02-04T08:32:38.941Z,19.87
2018-02-04T08:35:11.357Z,18.13
2018-02-04T08:37:39.754Z,17.87
2018-02-04T08:40:08.101Z,15.05
2018-02-04T08:42:36.422Z,16.50
2018-02-04T08:45:04.764Z,17.83
2018-02-04T08:47:33.091Z,18.80
2018-02-04T08:50:01.434Z,11.47
2018-02-04T08:52:29.753Z,13.83
2018-02-04T08:54:58.130Z,18.50
2018-02-04T08:57:26.741Z,16.77
2018-02-04T08:59:56.660Z,16.40
2018-02-04T09:02:25.061Z,11.10
2018-02-04T09:04:53.418Z,12.70
2018-02-04T09:07:21.817Z,18.12
2018-02-04T09:09:50.198Z,11.63
2018-02-04T09:12:18.522Z,8.23
2018-02-04T09:14:46.879Z,10.93
2018-02-04T09:17:15.197Z,11.60
2018-02-04T09:19:43.601Z,10.20
2018-02-04T09:22:12.689Z,9.95
2018-02-04T09:24:41.005Z,8.57
2018-02-04T09:27:09.351Z,11.50
2018-02-04T09:29:37.734Z,9.93
2018-02-04T09:32:06.114Z,10.57
2018-02-04T09:34:34.441Z,13.70
2018-02-04T09:37:02.799Z,10.87
2018-02-04T09:39:31.109Z,11.70
2018-02-04T09:41:59.449Z,7.40
2018-02-04T09:44:27.791Z,11.70
2018-02-04T09:46:56.161Z,11.07
2018-02-04T09:49:24.494Z,8.53
2018-02-04T09:51:52.916Z,10.87
2018-02-04T09:54:21.292Z,12.63
2018-02-04T09:56:49.670Z,9.60
2018-02-04T09:59:17.989Z,10.27
2018-02-04T10:01:46.334Z,11.10
2018-02-04T10:04:14.657Z,13.13
2018-02-04T10:06:43.988Z,11.97
2018-02-04T10:09:12.306Z,21.80
2018-02-04T10:11:40.693Z,11.27
2018-02-04T10:14:09.013Z,11.47
2018-02-04T10:16:38.765Z,9.80
2018-02-04T10:19:07.113Z,12.20
2018-02-04T10:21:35.582Z,8.20
2018-02-04T10:24:03.893Z,10.17
2018-02-04T10:26:32.324Z,10.00
2018-02-04T10:29:00.646Z,12.40
2018-02-04T10:31:29.052Z,11.07
2018-02-04T10:33:57.477Z,13.57
2018-02-04T10:36:26.218Z,13.80
2018-02-04T10:38:54.641Z,13.10
2018-02-04T10:41:22.985Z,13.17
2018-02-04T10:43:51.317Z,12.97
2018-02-04T10:46:19.658Z,11.70
2018-02-04T10:48:47.986Z,10.07
2018-02-04T10:51:21.918Z,11.10
2018-02-04T10:53:50.238Z,9.95
2018-02-04T10:56:18.605Z,15.73
2018-02-04T10:58:46.942Z,20.70
2018-02-04T11:01:15.292Z,19.13
2018-02-04T11:03:43.614Z,13.00
2018-02-04T11:06:11.957Z,13.03
2018-02-04T11:08:40.298Z,11.70
2018-02-04T11:11:08.617Z,13.43
2018-02-04T11:13:36.961Z,13.50
2018-02-04T11:16:05.291Z,12.25
2018-02-04T11:18:33.693Z,12.60
2018-02-04T11:21:02.011Z,17.37
2018-02-04T11:23:30.357Z,18.50
2018-02-04T11:25:58.681Z,16.07
2018-02-04T11:28:27.028Z,21.75
2018-02-04T11:30:55.345Z,17.17
2018-02-04T11:33:23.688Z,16.42
2018-02-04T11:35:52.011Z,14.07
2018-02-04T11:38:20.374Z,23.75
2018-02-04T11:40:48.889Z,21.60
2018-02-04T11:43:17.262Z,17.90
2018-02-04T11:45:46.557Z,17.95
2018-02-04T11:48:14.992Z,27.93
2018-02-04T11:50:43.317Z,16.95
2018-02-04T11:53:11.666Z,20.93
2018-02-04T11:55:40.226Z,16.97
2018-02-04T11:58:08.549Z,20.30
2018-02-04T12:00:36.874Z,21.80
2018-02-04T12:03:05.217Z,17.43
2018-02-04T12:05:33.537Z,21.53
2018-02-04T12:08:01.949Z,16.55
2018-02-04T12:10:30.278Z,16.53
2018-02-04T12:12:58.621Z,18.90
2018-02-04T12:15:26.982Z,16.52
2018-02-04T12:17:55.326Z,19.87
2018-02-04T12:20:23.647Z,15.80
2018-02-04T12:22:52.009Z,22.87
2018-02-04T12:25:20.329Z,25.37
2018-02-04T12:27:48.671Z,19.40
2018-02-04T12:30:16.997Z,24.10
2018-02-04T12:32:46.180Z,15.30
2018-02-04T12:35:14.514Z,20.80
2018-02-04T12:37:42.890Z,16.50
2018-02-04T12:40:11.265Z,20.43
2018-02-04T12:42:39.606Z,16.60
2018-02-04T12:45:07.990Z,18.37
2018-02-04T12:47:36.390Z,17.83
2018-02-04T12:50:04.697Z,16.60
2018-02-04T12:52:33.046Z,15.70
2018-02-04T12:55:01.442Z,19.63
2018-02-04T12:57:29.798Z,15.10
2018-02-04T12:59:58.190Z,14.60
2018-02-04T13:02:26.533Z,14.67
2018-02-04T13:04:54.857Z,12.63
2018-02-04T13:07:23.310Z,14.67
2018-02-04T13:09:51.690Z,14.45
2018-02-04T13:12:20.009Z,18.87
2018-02-04T13:14:48.353Z,16.50
2018-02-04T13:17:16.685Z,28.55
2018-02-04T13:19:45.078Z,25.67
2018-02-04T13:22:13.410Z,21.90
2018-02-04T13:24:41.822Z,28.03
2018-02-04T13:27:10.225Z,23.27
2018-02-04T13:29:38.605Z,70.93
2018-02-04T13:32:06.933Z,39.72
2018-02-04T13:34:35.277Z,14.80
2018-02-04T13:37:03.602Z,17.97
2018-02-04T13:39:31.975Z,15.93
2018-02-04T13:42:01.077Z,17.40
2018-02-04T13:44:29.429Z,16.02
2018-02-04T13:46:58.737Z,22.43
2018-02-04T13:49:27.097Z,14.43
2018-02-04T13:51:55.429Z,13.33
2018-02-04T13:54:24.073Z,18.93
2018-02-04T13:56:53.413Z,15.53
2018-02-04T13:59:21.797Z,15.93
2018-02-04T14:01:50.169Z,17.83
2018-02-04T14:04:18.509Z,15.90
2018-02-04T14:06:46.829Z,16.90
2018-02-04T14:09:15.253Z,14.67
2018-02-04T14:11:43.553Z,21.27
2018-02-04T14:14:11.902Z,22.33
2018-02-04T14:16:40.217Z,17.87
2018-02-04T14:19:08.610Z,24.77
2018-02-04T14:21:36.930Z,19.57
2018-02-04T14:24:05.414Z,14.77
2018-02-04T14:26:35.122Z,19.70
2018-02-04T14:29:03.651Z,17.20
2018-02-04T14:31:31.974Z,18.97
2018-02-04T14:34:00.810Z,19.57
2018-02-04T14:36:29.169Z,15.50
2018-02-04T14:38:57.565Z,18.30
2018-02-04T14:41:26.827Z,18.52
2018-02-04T14:43:55.605Z,31.23
2018-02-04T14:46:24.392Z,23.67
2018-02-04T14:48:52.785Z,17.37
2018-02-04T14:51:21.105Z,18.13
2018-02-04T14:53:49.450Z,17.83
2018-02-04T14:56:17.845Z,17.17
2018-02-04T14:58:46.226Z,14.80
2018-02-04T15:01:14.571Z,11.48
2018-02-04T15:03:42.897Z,12.83
2018-02-04T15:06:11.226Z,15.13
2018-02-04T15:08:39.568Z,16.83
2018-02-04T15:11:07.894Z,18.50
2018-02-04T15:13:36.242Z,14.55
2018-02-04T15:16:04.762Z,11.00
2018-02-04T15:18:33.083Z,17.37
2018-02-04T15:21:01.422Z,13.03
2018-02-04T15:23:29.749Z,14.93
2018-02-04T15:25:58.093Z,19.02
2018-02-04T15:28:26.425Z,13.13
2018-02-04T15:30:54.769Z,10.10
2018-02-04T15:33:23.089Z,12.77
2018-02-04T15:35:51.429Z,13.30
2018-02-04T15:38:19.754Z,13.63
2018-02-04T15:40:48.098Z,18.05
2018-02-04T15:43:16.482Z,12.87
2018-02-04T15:45:45.740Z,16.13
2018-02-04T15:48:14.103Z,16.83
2018-02-04T15:50:42.463Z,15.70
2018-02-04T15:53:10.781Z,15.80
2018-02-04T15:55:39.125Z,14.30
2018-02-04T15:58:07.445Z,18.37
2018-02-04T16:00:35.855Z,13.77
2018-02-04T16:03:04.204Z,19.10
2018-02-04T16:05:32.542Z,13.60
2018-02-04T16:08:00.889Z,13.97
2018-02-04T16:10:29.233Z,15.13
2018-02-04T16:12:57.553Z,21.70
2018-02-04T16:15:25.903Z,15.18
2018-02-04T16:17:54.226Z,11.37
2018-02-04T16:20:22.569Z,16.70
2018-02-04T16:22:50.897Z,15.52
2018-02-04T16:25:19.247Z,16.60
2018-02-04T16:27:47.578Z,14.80
2018-02-04T16:30:15.925Z,16.53
2018-02-04T16:32:44.250Z,17.07
2018-02-04T16:35:12.592Z,19.97
2018-02-04T16:37:40.909Z,14.30
2018-02-04T16:40:09.257Z,15.27
2018-02-04T16:42:37.577Z,22.30
2018-02-04T16:45:05.923Z,14.60
2018-02-04T16:47:34.243Z,19.67
2018-02-04T16:50:02.585Z,17.90
2018-02-04T16:52:30.914Z,19.10
2018-02-04T16:55:00.274Z,14.87
2018-02-04T16:57:28.593Z,19.43
2018-02-04T16:59:56.937Z,18.33
2018-02-04T17:02:25.266Z,19.27
2018-02-04T17:04:53.610Z,18.23
2018-02-04T17:07:21.934Z,21.58
2018-02-04T17:09:50.282Z,18.48
2018-02-04T17:12:18.605Z,22.53
2018-02-04T17:14:46.945Z,17.50
2018-02-04T17:17:15.314Z,16.03
2018-02-04T17:19:43.617Z,15.20
2018-02-04T17:22:11.969Z,16.40
2018-02-04T17:24:40.294Z,20.17
2018-02-04T17:27:08.673Z,27.77
2018-02-04T17:29:37.006Z,20.05
2018-02-04T17:32:05.354Z,17.60
2018-02-04T17:34:34.577Z,18.77
2018-02-04T17:37:02.926Z,17.83
2018-02-04T17:39:31.245Z,17.27
2018-02-04T17:41:59.594Z,22.20
2018-02-04T17:44:27.954Z,23.40
2018-02-04T17:46:56.282Z,26.98
2018-02-04T17:49:24.607Z,22.43
2018-02-04T17:51:52.946Z,23.10
2018-02-04T17:54:21.306Z,22.07
2018-02-04T17:56:49.669Z,22.20
2018-02-04T17:59:18.003Z,16.83
2018-02-04T18:01:46.362Z,26.27
2018-02-04T18:04:14.683Z,18.43
2018-02-04T18:06:43.030Z,20.17
2018-02-04T18:09:11.356Z,19.48
2018-02-04T18:11:39.701Z,21.30
2018-02-04T18:14:08.053Z,19.92
2018-02-04T18:16:36.397Z,20.53
2018-02-04T18:19:06.130Z,22.53
2018-02-04T18:21:34.482Z,21.53
2018-02-04T18:24:02.916Z,19.52
2018-02-04T18:26:31.611Z,19.90
2018-02-04T18:29:00.085Z,24.10
2018-02-04T18:31:28.642Z,21.70
2018-02-04T18:33:57.051Z,29.47
2018-02-04T18:36:26.363Z,22.13
2018-02-04T18:38:54.724Z,82.27
2018-02-04T18:41:23.464Z,28.60
2018-02-04T18:43:51.910Z,24.90
2018-02-04T18:46:20.305Z,21.60
2018-02-04T18:48:48.722Z,16.25
2018-02-04T18:51:17.070Z,26.83
2018-02-04T18:53:45.438Z,20.10
2018-02-04T18:56:13.931Z,26.63
2018-02-04T18:58:42.245Z,22.27
2018-02-04T19:01:10.602Z,19.20
2018-02-04T19:03:38.933Z,24.70
2018-02-04T19:06:07.412Z,24.60
2018-02-04T19:08:35.849Z,18.67
2018-02-04T19:11:04.388Z,19.33
2018-02-04T19:13:32.698Z,24.90
2018-02-04T19:16:01.054Z,25.37
2018-02-04T19:18:29.382Z,22.17
2018-02-04T19:20:57.759Z,21.37
2018-02-04T19:23:26.090Z,16.92
2018-02-04T19:25:54.428Z,25.77
2018-02-04T19:28:23.118Z,29.97
2018-02-04T19:30:51.447Z,23.63
2018-02-04T19:33:19.792Z,26.97
2018-02-04T19:35:48.125Z,33.05
2018-02-04T19:38:16.481Z,24.30
2018-02-04T19:40:44.816Z,22.08
2018-02-04T19:43:13.162Z,24.87
2018-02-04T19:45:41.579Z,27.55
2018-02-04T19:48:09.893Z,21.60
2018-02-04T19:50:38.217Z,24.40
2018-02-04T19:53:06.661Z,25.80
2018-02-04T19:55:34.973Z,23.90
2018-02-04T19:58:03.321Z,22.07
2018-02-04T20:00:31.653Z,24.85
2018-02-04T20:03:00.005Z,21.90
2018-02-04T20:05:28.332Z,29.37
2018-02-04T20:07:56.696Z,25.20
2018-02-04T20:10:25.019Z,27.30
2018-02-04T20:12:53.391Z,25.80
2018-02-04T20:15:21.914Z,29.85
2018-02-04T20:17:50.262Z,31.23
2018-02-04T20:20:18.597Z,27.23
2018-02-04T20:22:46.945Z,27.67
2018-02-04T20:25:15.276Z,31.17
2018-02-04T20:27:43.622Z,26.17
2018-02-04T20:30:11.960Z,28.47
2018-02-04T20:32:51.913Z,26.77
2018-02-04T20:35:20.246Z,22.53
2018-02-04T20:37:48.622Z,33.87
2018-02-04T20:40:16.953Z,28.00
2018-02-04T20:42:45.305Z,24.37
2018-02-04T20:45:13.672Z,29.50
2018-02-04T20:47:42.047Z,28.83
2018-02-04T20:50:10.381Z,30.00
2018-02-04T20:52:38.733Z,29.08
2018-02-04T20:55:07.091Z,26.50
2018-02-04T20:57:35.592Z,26.20
2018-02-04T21:00:03.918Z,26.77
2018-02-04T21:02:32.270Z,26.12
2018-02-04T21:05:01.419Z,37.53
2018-02-04T21:07:29.769Z,26.15
2018-02-04T21:09:58.114Z,27.75
2018-02-04T21:12:26.470Z,32.70
2018-02-04T21:14:54.805Z,27.45
2018-02-04T21:17:23.157Z,28.30
2018-02-04T21:19:51.650Z,34.07
2018-02-04T21:22:20.045Z,30.33
2018-02-04T21:24:48.448Z,30.37
2018-02-04T21:27:17.039Z,36.95
2018-02-04T21:29:45.437Z,30.17
2018-02-04T21:32:13.925Z,30.80
2018-02-04T21:34:42.361Z,29.47
2018-02-04T21:37:10.730Z,32.13
2018-02-04T21:39:39.181Z,28.92
2018-02-04T21:42:07.506Z,30.00
2018-02-04T21:44:36.095Z,35.13
2018-02-04T21:47:04.486Z,27.30
2018-02-04T21:49:32.846Z,34.95
2018-02-04T21:52:01.176Z,35.97
2018-02-04T21:54:29.517Z,30.93
2018-02-04T21:56:57.850Z,39.23
2018-02-04T21:59:26.200Z,34.87
2018-02-04T22:01:54.537Z,31.93
2018-02-04T22:04:22.873Z,28.20
2018-02-04T22:06:51.201Z,31.45
2018-02-04T22:09:19.549Z,34.65
2018-02-04T22:11:47.882Z,39.43
2018-02-04T22:14:16.230Z,36.10
2018-02-04T22:16:44.565Z,36.07
2018-02-04T22:19:12.909Z,35.75
2018-02-04T22:21:41.236Z,31.95
2018-02-04T22:24:09.582Z,37.20
2018-02-04T22:26:37.901Z,34.58
2018-02-04T22:29:06.249Z,36.95
2018-02-04T22:31:34.573Z,36.75
2018-02-04T22:34:02.923Z,46.80
2018-02-04T22:36:31.249Z,52.92
2018-02-04T22:38:59.593Z,51.30
2018-02-04T22:41:27.917Z,40.65
2018-02-04T22:43:56.261Z,39.70
2018-02-04T22:46:24.584Z,42.13
2018-02-04T22:48:52.949Z,45.72
2018-02-04T22:51:21.258Z,29.75
2018-02-04T22:53:49.607Z,38.22
2018-02-04T22:56:17.929Z,52.17
2018-02-04T22:58:46.282Z,50.60
2018-02-04T23:01:14.601Z,40.10
2018-02-04T23:03:42.953Z,59.53
2018-02-04T23:06:11.281Z,53.45
2018-02-04T23:08:39.625Z,48.10
2018-02-04T23:11:07.951Z,49.08
2018-02-04T23:13:36.294Z,45.03
2018-02-04T23:16:04.620Z,39.55
2018-02-04T23:18:32.962Z,41.65
2018-02-04T23:21:01.286Z,44.90
2018-02-04T23:23:29.630Z,48.83
2018-02-04T23:25:57.953Z,42.58
2018-02-04T23:28:26.297Z,47.47
2018-02-04T23:30:54.626Z,49.90
2018-02-04T23:33:22.970Z,60.53
2018-02-04T23:35:51.298Z,43.87
2018-02-04T23:38:19.657Z,42.62
2018-02-04T23:40:47.982Z,42.45
2018-02-04T23:43:16.313Z,42.22
2018-02-04T23:45:44.663Z,36.47
2018-02-04T23:48:12.981Z,46.88
2018-02-04T23:50:41.337Z,45.92
2018-02-04T23:53:09.658Z,44.92
2018-02-04T23:55:38.001Z,39.20
2018-02-04T23:58:06.327Z,37.70
